Springfield, New Jersey
Current Conditions -  °F | °C
As of 4:15 PM on Tuesday 21 Oct 2014 (Local Time) from KLDJ Reporting Station
Scattered Clouds Scattered Clouds  
Wind Chill: 69°   Ceiling: Unl
Heat Index: 69°   Visibility: 10mi
Dew Point: 57°   Wind: 12mph
Humidity: 66%   Direction: 130°SE
Pressure: 29.84"   Gusts: NA
Location:  40.71°N, 74.31°W
Report Text: KLDJ 212015Z AUTO 13010KT 10SM SCT021 SCT029 21/14 A2984 RMK AO2 LTG DSNT NE AND S T02060141
Loading
Personal Weather Stations






























Interactive Weather Map
Tropical Storm Tracking
New forecast layout! Learn more

10-Day Weather Forecast

Advertisements
Track Severe Weather on mobile